New Canton, Illinois
Current Conditions -  °F | °C
As of 6:35 AM on Wednesday 26 Nov 2014 (Local Time) from KPPQ Reporting Station
Clear Clear  
Wind Chill: 22°   Ceiling: Unl
Heat Index: 29°   Visibility: 7mi
Dew Point: 27°   Wind: 7mph
Humidity: 90%   Direction: 150°SSE
Pressure: 30.06"   Gusts: NA
Location:  39.64°N, 91.1°W
Report Text: KPPQ 261235Z AUTO 15006KT 7SM CLR M01/M03 A3006 RMK AO2 T10151030 PWINO
Loading
Personal Weather Stations






























Interactive Weather Map New forecast layout! Learn more

10-Day Weather Forecast

Advertisements
Track Severe Weather on mobile